Time;durP1;ratioP1;P1;durP2;ratioP2;P2;SDS_P1;SDS_P2;PMS_P1;PMS_P2;Temp;Humidity;BMP_temperature;BMP_pressure;BME280_temperature;BME280_humidity;BME280_pressure;Samples;Min_cycle;Max_cycle;Signal;HPM_P1;HPM_P2
2023/07/25 00:01:02;;;;;;;5.37;3.20;;;16.60;98.00;;;;;;5034121;28;20553;-69
2023/07/25 00:03:31;;;;;;;5.03;2.90;;;16.60;98.00;;;;;;5033781;28;20474;-69
2023/07/25 00:05:58;;;;;;;4.77;2.93;;;16.80;98.00;;;;;;5033925;28;20466;-70
2023/07/25 00:08:25;;;;;;;3.93;2.57;;;16.80;98.00;;;;;;5033887;28;20451;-69
2023/07/25 00:10:52;;;;;;;3.60;2.47;;;16.90;98.00;;;;;;5033952;28;20462;-69
2023/07/25 00:13:19;;;;;;;5.80;2.80;;;16.70;98.00;;;;;;5033592;28;20953;-69
2023/07/25 00:15:46;;;;;;;3.83;2.50;;;16.70;98.00;;;;;;5033129;28;20451;-70
2023/07/25 00:18:13;;;;;;;9.03;2.60;;;16.70;98.00;;;;;;5033580;28;20964;-70
2023/07/25 00:20:42;;;;;;;3.70;2.20;;;16.60;98.00;;;;;;5015550;28;20513;-70
2023/07/25 00:23:09;;;;;;;4.20;2.70;;;16.50;98.00;;;;;;5033357;28;20530;-69
2023/07/25 00:25:37;;;;;;;6.17;3.13;;;16.50;98.00;;;;;;5033161;28;20482;-70
2023/07/25 00:28:04;;;;;;;4.07;2.60;;;16.50;98.00;;;;;;5015734;28;20834;-70
2023/07/25 00:30:31;;;;;;;2.73;2.10;;;16.50;98.00;;;;;;5033335;28;20868;-69
2023/07/25 00:32:58;;;;;;;6.13;2.40;;;16.60;98.00;;;;;;5033193;28;20455;-69
2023/07/25 00:35:25;;;;;;;2.80;2.10;;;16.60;98.00;;;;;;5033177;28;20451;-70
2023/07/25 00:37:54;;;;;;;4.93;2.60;;;16.60;98.00;;;;;;5033170;28;20455;-70
2023/07/25 00:40:24;;;;;;;4.60;2.60;;;16.60;98.00;;;;;;5033083;28;20459;-69
2023/07/25 00:42:55;;;;;;;3.50;2.30;;;16.50;98.00;;;;;;5033058;28;20459;-69
2023/07/25 00:45:22;;;;;;;5.30;2.63;;;16.30;98.00;;;;;;5033104;28;20548;-69
2023/07/25 00:47:50;;;;;;;3.40;2.20;;;16.30;98.00;;;;;;5033097;28;20802;-70
2023/07/25 00:50:17;;;;;;;3.47;2.37;;;16.40;98.00;;;;;;5032964;28;20470;-70
2023/07/25 00:52:44;;;;;;;4.03;2.20;;;16.40;98.00;;;;;;5032793;28;20477;-70
2023/07/25 00:55:14;;;;;;;4.40;2.40;;;16.30;98.00;;;;;;5033088;28;20486;-70
2023/07/25 00:57:41;;;;;;;6.67;2.87;;;16.30;98.00;;;;;;5032687;28;20505;-70
2023/07/25 01:00:09;;;;;;;3.93;2.30;;;16.20;98.00;;;;;;5032822;28;20455;-70
2023/07/25 01:02:36;;;;;;;4.27;2.50;;;16.30;98.00;;;;;;5032845;28;20463;-70
2023/07/25 01:05:05;;;;;;;3.60;2.60;;;16.30;98.00;;;;;;5032532;28;20487;-69
2023/07/25 01:07:33;;;;;;;3.60;2.50;;;16.30;98.00;;;;;;5032629;28;20458;-70
2023/07/25 01:10:00;;;;;;;4.07;2.50;;;16.30;98.00;;;;;;5032778;28;20462;-69
2023/07/25 01:12:29;;;;;;;3.40;2.20;;;16.30;98.00;;;;;;5015001;28;20462;-69
2023/07/25 01:14:56;;;;;;;3.47;2.30;;;16.40;98.00;;;;;;5032643;28;20804;-70
2023/07/25 01:17:25;;;;;;;4.33;2.50;;;16.30;98.00;;;;;;5032276;28;20462;-70
2023/07/25 01:19:55;;;;;;;3.00;2.30;;;16.30;98.00;;;;;;5032251;28;20458;-69
2023/07/25 01:22:24;;;;;;;2.97;2.23;;;16.40;98.00;;;;;;5032334;28;20458;-70
2023/07/25 01:24:56;;;;;;;3.20;2.23;;;16.20;98.00;;;;;;5032099;28;20486;-70
2023/07/25 01:27:23;;;;;;;3.70;2.40;;;16.20;98.00;;;;;;5032081;28;20960;-69
2023/07/25 01:29:50;;;;;;;4.20;2.43;;;16.40;98.00;;;;;;5032183;28;20491;-69
2023/07/25 01:32:17;;;;;;;4.20;2.47;;;16.30;98.00;;;;;;5032067;28;20541;-69
2023/07/25 01:34:44;;;;;;;4.90;2.47;;;16.20;98.00;;;;;;5014491;28;20462;-70
2023/07/25 01:37:12;;;;;;;4.03;2.60;;;16.20;98.00;;;;;;5014277;28;20462;-70
2023/07/25 01:39:39;;;;;;;3.60;2.23;;;16.20;98.00;;;;;;5031460;28;20459;-69
2023/07/25 01:42:08;;;;;;;3.60;2.50;;;16.10;98.00;;;;;;5014436;28;20501;-69
2023/07/25 01:44:35;;;;;;;3.00;2.20;;;15.90;98.00;;;;;;5031431;28;20529;-70
2023/07/25 01:47:02;;;;;;;2.90;2.10;;;15.90;98.00;;;;;;5014350;28;20809;-70
2023/07/25 01:49:30;;;;;;;3.40;2.23;;;15.80;98.00;;;;;;5031899;28;20538;-70
2023/07/25 01:51:57;;;;;;;3.67;2.40;;;15.80;98.00;;;;;;5014217;28;20945;-70
2023/07/25 01:54:24;;;;;;;4.27;2.33;;;15.80;98.00;;;;;;5031837;28;20455;-69
2023/07/25 01:56:51;;;;;;;4.50;2.20;;;15.80;98.00;;;;;;5031627;28;20504;-70
2023/07/25 01:59:22;;;;;;;3.20;2.30;;;15.90;98.00;;;;;;5031891;28;20455;-70
2023/07/25 02:01:49;;;;;;;3.57;2.20;;;16.00;98.00;;;;;;5014563;28;20458;-69
2023/07/25 02:04:17;;;;;;;3.07;2.20;;;16.00;98.00;;;;;;5031547;28;20485;-70
2023/07/25 02:06:44;;;;;;;2.90;2.27;;;16.00;98.00;;;;;;5013958;28;20458;-69
2023/07/25 02:09:11;;;;;;;3.50;2.30;;;16.00;98.00;;;;;;5014166;28;20462;-69
2023/07/25 02:11:38;;;;;;;4.47;2.40;;;15.90;98.00;;;;;;5031474;28;20461;-69
2023/07/25 02:14:05;;;;;;;4.20;2.23;;;15.90;98.00;;;;;;5031354;28;20528;-69
2023/07/25 02:16:36;;;;;;;3.17;2.10;;;15.70;98.00;;;;;;5013974;28;20695;-70
2023/07/25 02:19:03;;;;;;;3.23;2.17;;;15.60;98.00;;;;;;5031220;28;20964;-70
2023/07/25 02:21:34;;;;;;;3.17;2.23;;;15.60;98.00;;;;;;5031348;28;20792;-69
2023/07/25 02:24:01;;;;;;;3.30;2.10;;;15.60;98.00;;;;;;5031275;28;20459;-69
2023/07/25 02:26:28;;;;;;;2.90;2.10;;;15.80;98.00;;;;;;5031216;28;20461;-69
2023/07/25 02:28:56;;;;;;;2.90;2.20;;;15.80;98.00;;;;;;5031093;28;20455;-69
2023/07/25 02:31:23;;;;;;;3.40;2.37;;;15.80;98.00;;;;;;5031416;28;20461;-69
2023/07/25 02:33:51;;;;;;;3.70;2.17;;;15.80;98.00;;;;;;5013521;28;20454;-70
2023/07/25 02:36:18;;;;;;;3.50;2.13;;;15.70;98.00;;;;;;5030637;28;20542;-69
2023/07/25 02:38:45;;;;;;;3.87;2.40;;;15.70;98.00;;;;;;5031015;28;20961;-69
2023/07/25 02:41:13;;;;;;;4.20;2.47;;;15.60;98.00;;;;;;5031099;28;20584;-69
2023/07/25 02:43:40;;;;;;;3.10;2.10;;;15.60;98.00;;;;;;5031086;28;20462;-70
2023/07/25 02:46:07;;;;;;;3.13;2.37;;;15.70;98.00;;;;;;5031137;28;20901;-70
2023/07/25 02:48:34;;;;;;;4.03;2.60;;;15.70;98.00;;;;;;5013207;28;20446;-69
2023/07/25 02:51:03;;;;;;;2.90;2.07;;;15.70;98.00;;;;;;5031100;28;20462;-69
2023/07/25 02:53:30;;;;;;;2.63;2.27;;;15.80;98.00;;;;;;5035302;28;20785;-69
2023/07/25 02:55:57;;;;;;;3.60;2.37;;;15.80;98.00;;;;;;5035607;28;21014;-70
2023/07/25 02:58:24;;;;;;;5.07;3.37;;;15.80;98.00;;;;;;5035082;28;20481;-70
2023/07/25 03:00:52;;;;;;;5.33;3.07;;;15.70;98.00;;;;;;5034948;28;20450;-69
2023/07/25 03:03:19;;;;;;;4.57;2.67;;;15.50;98.00;;;;;;5034814;28;20948;-69
2023/07/25 03:05:46;;;;;;;3.10;2.30;;;15.40;98.00;;;;;;5017192;28;20517;-70
2023/07/25 03:08:14;;;;;;;2.80;1.97;;;15.50;98.00;;;;;;5034913;28;20462;-69
2023/07/25 03:10:41;;;;;;;4.40;2.20;;;15.40;98.00;;;;;;5034691;28;20450;-69
2023/07/25 03:13:08;;;;;;;4.97;2.63;;;15.30;98.00;;;;;;5034779;28;20461;-69
2023/07/25 03:15:36;;;;;;;2.93;2.37;;;15.20;98.00;;;;;;5034829;28;20454;-69
2023/07/25 03:18:04;;;;;;;6.93;3.60;;;15.30;98.00;;;;;;5034478;28;20502;-69
2023/07/25 03:20:32;;;;;;;3.93;2.40;;;15.40;98.00;;;;;;5034608;28;20839;-70
2023/07/25 03:22:59;;;;;;;2.63;2.10;;;15.30;98.00;;;;;;5016635;28;20854;-69
2023/07/25 03:25:27;;;;;;;3.23;2.20;;;15.30;98.00;;;;;;5034390;28;20482;-69
2023/07/25 03:27:54;;;;;;;2.30;1.80;;;15.40;98.00;;;;;;5034438;28;20541;-70
2023/07/25 03:30:21;;;;;;;3.10;2.00;;;15.40;98.00;;;;;;5034469;28;20451;-70
2023/07/25 03:32:48;;;;;;;5.07;2.40;;;15.40;98.00;;;;;;5034233;28;20465;-69
2023/07/25 03:35:16;;;;;;;4.17;2.47;;;15.50;98.00;;;;;;5034320;28;20521;-70
2023/07/25 03:37:43;;;;;;;2.20;1.90;;;15.50;98.00;;;;;;5034134;28;20454;-69
2023/07/25 03:40:11;;;;;;;3.37;2.23;;;15.60;98.00;;;;;;5034147;28;20458;-70
2023/07/25 03:42:39;;;;;;;4.07;2.43;;;15.60;98.00;;;;;;5034146;28;20636;-69
2023/07/25 03:45:08;;;;;;;3.47;2.30;;;15.70;98.00;;;;;;5034124;28;20490;-70
2023/07/25 03:47:36;;;;;;;7.00;2.40;;;15.70;98.00;;;;;;5034034;28;20803;-69
2023/07/25 03:50:03;;;;;;;3.67;2.40;;;15.80;98.00;;;;;;5016838;28;20928;-70
2023/07/25 03:52:30;;;;;;;3.20;2.17;;;16.00;98.00;;;;;;5034162;28;20455;-70
2023/07/25 03:54:57;;;;;;;4.70;2.30;;;16.10;98.00;;;;;;5034156;28;20823;-69
2023/07/25 03:57:25;;;;;;;5.00;2.53;;;16.00;98.00;;;;;;5016422;28;20458;-70
2023/07/25 03:59:53;;;;;;;4.20;2.30;;;15.80;98.00;;;;;;5033989;28;20551;-69
2023/07/25 04:02:20;;;;;;;3.93;2.50;;;15.80;98.00;;;;;;5033120;28;20474;-69
2023/07/25 04:04:47;;;;;;;3.63;2.03;;;15.90;98.00;;;;;;5033614;28;20466;-69
2023/07/25 04:07:14;;;;;;;4.07;2.20;;;15.70;98.00;;;;;;5033636;28;20516;-70
2023/07/25 04:09:42;;;;;;;3.70;2.30;;;15.60;98.00;;;;;;5033753;28;20461;-70
2023/07/25 04:12:10;;;;;;;4.23;3.00;;;15.60;98.00;;;;;;5033789;28;20546;-69
2023/07/25 04:14:37;;;;;;;2.60;2.17;;;15.50;98.00;;;;;;5033704;28;20593;-69
2023/07/25 04:17:06;;;;;;;4.60;2.50;;;15.60;98.00;;;;;;5033299;28;20459;-69
2023/07/25 04:19:34;;;;;;;3.90;2.60;;;15.70;98.00;;;;;;5033499;28;20467;-69
2023/07/25 04:22:01;;;;;;;3.30;2.20;;;15.80;98.00;;;;;;5033977;28;20467;-69
2023/07/25 04:24:28;;;;;;;4.67;2.17;;;16.00;98.00;;;;;;5229457;22;21023;-68
2023/07/25 04:26:55;;;;;;;7.73;2.73;;;16.20;98.00;;;;;;5033217;28;20483;-67
2023/07/25 04:29:22;;;;;;;2.40;2.00;;;16.20;98.00;;;;;;5033447;28;20463;-67
2023/07/25 04:31:49;;;;;;;3.00;2.23;;;16.20;98.00;;;;;;5033275;28;20455;-68
2023/07/25 04:34:18;;;;;;;2.67;2.30;;;16.30;98.00;;;;;;5033418;28;20451;-67
2023/07/25 04:36:45;;;;;;;3.30;2.37;;;16.40;98.00;;;;;;5015772;28;20458;-67
2023/07/25 04:39:12;;;;;;;3.27;2.33;;;16.60;98.00;;;;;;5015898;28;20455;-67
2023/07/25 04:41:39;;;;;;;3.87;2.20;;;16.60;98.00;;;;;;5033383;28;20503;-67
2023/07/25 04:44:06;;;;;;;3.00;2.20;;;16.60;98.00;;;;;;5015728;28;20458;-67
2023/07/25 04:46:33;;;;;;;2.70;2.20;;;16.60;98.00;;;;;;5034365;28;21009;-68
2023/07/25 04:49:01;;;;;;;4.00;2.97;;;16.60;98.00;;;;;;5053110;28;20454;-67
2023/07/25 04:51:29;;;;;;;4.30;2.80;;;16.50;98.00;;;;;;5052812;28;20464;-67
2023/07/25 04:53:56;;;;;;;5.97;3.07;;;16.50;98.00;;;;;;5052489;28;21004;-67
2023/07/25 04:56:24;;;;;;;3.67;2.60;;;16.40;98.00;;;;;;5052728;28;20461;-68
2023/07/25 04:58:51;;;;;;;3.60;2.33;;;16.50;98.00;;;;;;5034783;28;20504;-67
2023/07/25 05:01:21;;;;;;;3.50;2.63;;;16.50;98.00;;;;;;5052790;28;20453;-67
2023/07/25 05:03:48;;;;;;;3.17;2.40;;;16.40;98.00;;;;;;5035141;28;20476;-68
2023/07/25 05:06:15;;;;;;;6.90;2.70;;;16.50;98.00;;;;;;5052598;28;20481;-67
2023/07/25 05:08:45;;;;;;;4.63;2.70;;;16.60;98.00;;;;;;5052532;28;20468;-67
2023/07/25 05:11:12;;;;;;;3.90;2.63;;;16.60;98.00;;;;;;5052445;28;20469;-67
2023/07/25 05:13:39;;;;;;;4.47;2.53;;;16.60;98.00;;;;;;5051953;28;20458;-67
2023/07/25 05:16:06;;;;;;;3.67;2.63;;;16.70;98.00;;;;;;5052200;28;20461;-68
2023/07/25 05:18:34;;;;;;;4.30;2.60;;;16.80;98.00;;;;;;5052230;28;20828;-67
2023/07/25 05:21:01;;;;;;;4.57;2.50;;;16.80;98.00;;;;;;5052026;28;20454;-67
2023/07/25 05:23:28;;;;;;;4.13;2.70;;;16.70;98.00;;;;;;5052041;28;20893;-67
2023/07/25 05:25:56;;;;;;;3.77;2.60;;;16.80;98.00;;;;;;5052256;28;20477;-67
2023/07/25 05:28:23;;;;;;;3.37;2.60;;;16.80;98.00;;;;;;5051994;28;20450;-67
2023/07/25 05:30:50;;;;;;;4.60;2.50;;;16.80;98.00;;;;;;5052098;28;20462;-68
2023/07/25 05:33:17;;;;;;;7.13;2.80;;;16.90;98.00;;;;;;5017916;28;20456;-68
2023/07/25 05:35:45;;;;;;;3.60;2.70;;;16.90;98.00;;;;;;5052104;28;20897;-67
2023/07/25 05:38:12;;;;;;;3.83;2.50;;;16.90;98.00;;;;;;5051964;28;20454;-67
2023/07/25 05:40:39;;;;;;;4.33;2.80;;;16.90;98.00;;;;;;5052182;28;20461;-68
2023/07/25 05:43:07;;;;;;;5.30;2.90;;;16.80;98.00;;;;;;5051940;28;20458;-68
2023/07/25 05:45:34;;;;;;;4.73;2.97;;;16.80;98.00;;;;;;5051797;28;20800;-69
2023/07/25 05:48:01;;;;;;;7.00;2.60;;;16.80;98.00;;;;;;5052092;28;20788;-67
2023/07/25 05:50:28;;;;;;;5.10;2.60;;;16.80;98.00;;;;;;5034103;28;20450;-68
2023/07/25 05:52:55;;;;;;;9.20;3.20;;;16.80;98.00;;;;;;5051860;28;20520;-67
2023/07/25 05:55:22;;;;;;;5.00;2.87;;;16.90;98.00;;;;;;5033743;28;20470;-68
2023/07/25 05:57:53;;;;;;;4.40;2.50;;;16.80;98.00;;;;;;5033905;28;20457;-68
2023/07/25 06:00:22;;;;;;;4.60;2.77;;;17.00;98.00;;;;;;5051717;28;20454;-67
2023/07/25 06:02:49;;;;;;;4.07;2.43;;;16.90;98.00;;;;;;5033823;28;20971;-68
2023/07/25 06:05:17;;;;;;;5.67;3.13;;;17.00;98.00;;;;;;5051485;28;20457;-68
2023/07/25 06:07:44;;;;;;;7.30;3.13;;;17.10;98.00;;;;;;5033809;28;20549;-67
2023/07/25 06:10:12;;;;;;;5.13;3.23;;;17.30;98.00;;;;;;5051435;28;20507;-68
2023/07/25 06:12:42;;;;;;;3.50;2.40;;;17.30;98.00;;;;;;5033687;28;20458;-68
2023/07/25 06:15:10;;;;;;;3.40;2.60;;;17.20;98.00;;;;;;5051460;28;20462;-67
2023/07/25 06:17:39;;;;;;;7.47;2.40;;;17.20;98.00;;;;;;5051029;28;20477;-67
2023/07/25 06:20:07;;;;;;;5.93;2.93;;;17.10;98.00;;;;;;5051519;28;20824;-68
2023/07/25 06:22:37;;;;;;;4.37;2.50;;;17.10;98.00;;;;;;5051224;28;20553;-68
2023/07/25 06:25:05;;;;;;;4.03;2.40;;;17.20;98.00;;;;;;5051314;28;20620;-68
2023/07/25 06:27:32;;;;;;;4.10;2.73;;;17.30;98.00;;;;;;5051046;28;20486;-67
2023/07/25 06:29:59;;;;;;;5.40;2.90;;;17.20;98.00;;;;;;5051163;28;20457;-64
2023/07/25 06:32:26;;;;;;;8.00;3.10;;;17.30;98.00;;;;;;5051427;28;20482;-64
2023/07/25 06:34:57;;;;;;;4.87;2.93;;;17.40;98.00;;;;;;5051292;28;21004;-64
2023/07/25 06:37:24;;;;;;;3.30;2.47;;;17.40;98.00;;;;;;5051122;28;21006;-65
2023/07/25 06:39:51;;;;;;;8.00;3.37;;;17.40;98.00;;;;;;5050973;28;20487;-64
2023/07/25 06:42:18;;;;;;;4.60;2.57;;;17.40;98.00;;;;;;5051047;28;20458;-64
2023/07/25 06:44:45;;;;;;;4.40;2.80;;;17.40;98.00;;;;;;5051023;28;20462;-65
2023/07/25 06:47:12;;;;;;;4.20;2.80;;;17.60;98.00;;;;;;5050860;28;20489;-65
2023/07/25 06:49:39;;;;;;;3.30;2.60;;;17.90;98.00;;;;;;5050892;28;20947;-65
2023/07/25 06:52:08;;;;;;;5.33;2.80;;;18.00;98.00;;;;;;5033047;28;20540;-65
2023/07/25 06:54:37;;;;;;;6.30;2.70;;;17.90;98.00;;;;;;5050958;28;20458;-65
2023/07/25 06:57:04;;;;;;;3.70;2.80;;;18.00;98.00;;;;;;5033344;28;20458;-64
2023/07/25 06:59:31;;;;;;;6.70;3.10;;;18.10;98.00;;;;;;5050916;28;20979;-65
2023/07/25 07:01:58;;;;;;;5.20;2.80;;;18.30;98.00;;;;;;5050724;28;20453;-64
2023/07/25 07:04:25;;;;;;;3.53;2.37;;;18.20;98.00;;;;;;5050769;28;20461;-65
2023/07/25 07:06:52;;;;;;;3.37;2.30;;;18.20;98.00;;;;;;5050682;28;20477;-65
2023/07/25 07:09:21;;;;;;;4.03;2.70;;;18.20;98.00;;;;;;5050781;28;20481;-65
2023/07/25 07:11:55;;;;;;;4.50;2.70;;;18.10;98.00;;;;;;5050627;28;20470;-65
2023/07/25 07:14:22;;;;;;;3.50;2.33;;;18.00;98.00;;;;;;5050650;28;20465;-65
2023/07/25 07:16:50;;;;;;;5.60;2.70;;;18.10;98.00;;;;;;5033031;28;20452;-64
2023/07/25 07:19:17;;;;;;;3.83;2.70;;;18.10;98.00;;;;;;5050920;28;20454;-65
2023/07/25 07:21:44;;;;;;;4.07;2.53;;;18.20;98.00;;;;;;5033060;28;20445;-65
2023/07/25 07:24:11;;;;;;;5.13;2.90;;;18.30;98.00;;;;;;5050644;28;20469;-65
2023/07/25 07:26:39;;;;;;;3.70;2.53;;;18.30;98.00;;;;;;5050633;28;20488;-65
2023/07/25 07:29:07;;;;;;;3.77;2.37;;;18.30;98.00;;;;;;5050637;28;20453;-65
2023/07/25 07:31:35;;;;;;;4.27;2.70;;;18.30;98.00;;;;;;5044160;28;20860;-65
2023/07/25 07:34:14;;;;;;;4.50;2.90;;;18.40;98.00;;;;;;5037426;28;20514;-65
2023/07/25 07:36:42;;;;;;;3.17;2.20;;;18.40;98.00;;;;;;5050438;28;20452;-65
2023/07/25 07:39:09;;;;;;;3.63;2.50;;;18.30;98.00;;;;;;5035779;28;20472;-62
2023/07/25 07:41:36;;;;;;;3.30;2.53;;;18.30;98.00;;;;;;5054036;28;20954;-63
2023/07/25 07:44:05;;;;;;;5.90;2.83;;;18.30;98.00;;;;;;5054453;28;20461;-61
2023/07/25 07:46:33;;;;;;;4.17;2.50;;;18.30;98.00;;;;;;5239930;22;20829;-60
2023/07/25 10:42:35;;;;;;;2.30;1.60;;;23.30;98.00;;;;;;5013847;28;20439;-89
2023/07/25 10:45:02;;;;;;;4.03;1.90;;;23.40;98.00;;;;;;4971125;28;20527;-63
2023/07/25 10:47:43;;;;;;;5.27;2.00;;;23.10;98.00;;;;;;4973028;28;20486;-63
2023/07/25 10:50:10;;;;;;;2.80;1.90;;;23.00;98.00;;;;;;4971163;28;20461;-63
2023/07/25 10:52:43;;;;;;;3.30;1.70;;;23.10;98.00;;;;;;4972761;28;20484;-63
2023/07/25 10:55:11;;;;;;;5.00;2.10;;;23.50;98.00;;;;;;4973074;28;20468;-63
2023/07/25 10:57:39;;;;;;;3.97;2.20;;;23.80;98.00;;;;;;4972359;28;20544;-63
2023/07/25 11:00:09;;;;;;;2.37;1.70;;;23.80;98.00;;;;;;4972374;28;20877;-63
2023/07/25 11:02:39;;;;;;;4.33;2.00;;;23.80;98.00;;;;;;4972017;28;20852;-63
2023/07/25 11:05:27;;;;;;;2.20;1.80;;;24.10;98.00;;;;;;4972212;28;20461;-63
2023/07/25 11:07:55;;;;;;;3.30;1.70;;;24.30;98.00;;;;;;4967595;28;20544;-63
2023/07/25 11:10:26;;;;;;;4.47;2.23;;;24.50;98.00;;;;;;4972509;28;20557;-63
2023/07/25 11:12:55;;;;;;;2.70;1.90;;;24.40;98.00;;;;;;4973394;28;20962;-63
2023/07/25 11:15:25;;;;;;;6.00;2.50;;;24.30;98.00;;;;;;4976182;28;20508;-63
2023/07/25 11:17:53;;;;;;;1.87;1.80;;;24.10;98.00;;;;;;4975960;28;20472;-63
2023/07/25 11:20:22;;;;;;;2.70;1.70;;;23.90;98.00;;;;;;4975954;28;20844;-63
2023/07/25 11:22:50;;;;;;;3.00;2.10;;;23.60;98.00;;;;;;4975291;28;21027;-63
2023/07/25 11:25:17;;;;;;;2.30;1.80;;;23.60;98.00;;;;;;4975797;28;20862;-63
2023/07/25 11:27:46;;;;;;;2.50;1.90;;;23.50;98.00;;;;;;4975438;28;20488;-63
2023/07/25 11:30:17;;;;;;;9.90;2.20;;;23.50;98.00;;;;;;4958446;28;20523;-63
2023/07/25 11:32:48;;;;;;;2.30;1.90;;;23.50;98.00;;;;;;4975806;28;20472;-63
2023/07/25 11:35:16;;;;;;;1.60;1.57;;;23.40;98.00;;;;;;4975869;28;20967;-63
2023/07/25 11:37:47;;;;;;;4.87;1.63;;;23.10;98.00;;;;;;4975235;28;20465;-63
2023/07/25 11:40:16;;;;;;;2.80;1.70;;;22.70;98.00;;;;;;4973504;28;20468;-63
2023/07/25 11:42:45;;;;;;;1.60;1.50;;;22.40;98.00;;;;;;4974788;28;20480;-63
2023/07/25 11:45:15;;;;;;;5.60;2.00;;;22.40;98.00;;;;;;4975240;28;20465;-63
2023/07/25 11:47:44;;;;;;;1.70;1.50;;;22.50;98.00;;;;;;4957808;28;20496;-63
2023/07/25 11:50:12;;;;;;;1.80;1.63;;;23.20;98.00;;;;;;4974219;28;20461;-63
2023/07/25 11:52:42;;;;;;;2.40;1.70;;;23.80;98.00;;;;;;4975076;28;20830;-63
2023/07/25 11:55:10;;;;;;;1.90;1.60;;;24.00;98.00;;;;;;4975109;28;20461;-63
2023/07/25 11:57:40;;;;;;;2.73;1.80;;;24.30;98.00;;;;;;4974985;28;20488;-63
2023/07/25 12:00:11;;;;;;;2.43;1.90;;;24.80;98.00;;;;;;4975611;28;20488;-63
2023/07/25 12:02:40;;;;;;;2.37;1.80;;;24.90;98.00;;;;;;4975730;28;20805;-64
2023/07/25 12:05:09;;;;;;;2.10;1.83;;;25.00;98.00;;;;;;4975471;28;20955;-63
2023/07/25 12:07:49;;;;;;;2.70;2.03;;;25.30;98.00;;;;;;4974761;28;20488;-63
2023/07/25 12:10:27;;;;;;;2.20;1.90;;;25.40;97.90;;;;;;4958022;28;20461;-64
2023/07/25 12:12:55;;;;;;;2.10;1.60;;;25.80;97.20;;;;;;4974179;28;21179;-63
2023/07/25 12:15:26;;;;;;;2.80;1.80;;;26.20;97.10;;;;;;4974919;28;20553;-63
2023/07/25 12:17:54;;;;;;;1.80;1.70;;;26.50;95.00;;;;;;4974386;28;20540;-64
2023/07/25 12:20:22;;;;;;;1.87;1.67;;;26.80;93.90;;;;;;4975009;28;20469;-64
2023/07/25 12:22:49;;;;;;;2.10;1.90;;;26.40;94.60;;;;;;4975188;28;20465;-64
2023/07/25 12:25:17;;;;;;;2.43;1.80;;;25.60;96.30;;;;;;4975299;28;20458;-64
2023/07/25 12:27:49;;;;;;;2.47;1.80;;;25.40;97.30;;;;;;4975039;28;20551;-64
2023/07/25 12:30:16;;;;;;;5.20;1.93;;;25.10;97.30;;;;;;4975332;28;20461;-64
2023/07/25 12:32:43;;;;;;;1.57;1.50;;;24.50;98.00;;;;;;4975003;28;20480;-63
2023/07/25 12:35:12;;;;;;;5.27;1.50;;;23.70;97.60;;;;;;4975278;28;20471;-63
2023/07/25 12:37:39;;;;;;;1.70;1.37;;;22.50;98.00;;;;;;4975000;28;21047;-63
2023/07/25 12:40:07;;;;;;;3.23;1.30;;;21.80;98.00;;;;;;4975272;28;20504;-63
2023/07/25 12:42:35;;;;;;;1.50;1.40;;;21.00;98.00;;;;;;4975044;28;20516;-63
2023/07/25 12:45:05;;;;;;;1.50;1.27;;;20.60;98.00;;;;;;4957939;28;20532;-64
2023/07/25 12:47:34;;;;;;;5.33;1.30;;;20.40;98.00;;;;;;4974821;28;20520;-63
2023/07/25 12:50:02;;;;;;;1.63;1.40;;;20.40;98.00;;;;;;4974707;28;21081;-63
2023/07/25 12:52:38;;;;;;;2.17;1.63;;;20.20;98.00;;;;;;4975250;28;20822;-63
2023/07/25 12:55:06;;;;;;;1.47;1.27;;;19.90;98.00;;;;;;4975045;28;20460;-63
2023/07/25 12:57:33;;;;;;;1.40;1.40;;;19.70;98.00;;;;;;4975313;28;20457;-63
2023/07/25 13:00:00;;;;;;;1.40;1.30;;;19.50;98.00;;;;;;4974735;28;20457;-63
2023/07/25 13:02:27;;;;;;;2.10;1.50;;;19.70;98.00;;;;;;4974809;28;20489;-63
2023/07/25 13:05:00;;;;;;;2.13;1.40;;;20.10;98.00;;;;;;4974515;28;20468;-63
2023/07/25 13:07:28;;;;;;;4.27;1.90;;;20.90;98.00;;;;;;4973668;28;20493;-63
2023/07/25 13:10:02;;;;;;;1.77;1.50;;;21.20;98.00;;;;;;4973715;28;20449;-63
2023/07/25 13:12:29;;;;;;;2.23;1.50;;;21.70;98.00;;;;;;4974302;28;20465;-63
2023/07/25 13:14:56;;;;;;;1.80;1.50;;;22.40;98.00;;;;;;4973867;28;20459;-62
2023/07/25 13:17:23;;;;;;;1.83;1.57;;;22.90;98.00;;;;;;4973782;28;20469;-63
2023/07/25 13:19:50;;;;;;;1.70;1.60;;;23.00;98.00;;;;;;4973674;28;20461;-63
2023/07/25 13:22:17;;;;;;;1.97;1.50;;;22.90;98.00;;;;;;4974152;28;20468;-63
2023/07/25 13:24:44;;;;;;;3.50;1.53;;;23.10;98.00;;;;;;4973519;28;20465;-63
2023/07/25 13:27:13;;;;;;;1.30;1.27;;;22.50;98.00;;;;;;4973563;28;20488;-62
2023/07/25 13:29:40;;;;;;;3.57;1.57;;;22.70;98.00;;;;;;4973442;28;20524;-62
2023/07/25 13:32:08;;;;;;;1.50;1.33;;;22.90;98.00;;;;;;4973514;28;20511;-62
2023/07/25 13:34:35;;;;;;;1.40;1.30;;;22.90;98.00;;;;;;4973154;28;20843;-63
2023/07/25 13:37:10;;;;;;;1.63;1.40;;;22.80;98.00;;;;;;4972978;28;20465;-62
2023/07/25 13:39:37;;;;;;;1.40;1.40;;;22.70;98.00;;;;;;4973551;28;20496;-63
2023/07/25 13:42:05;;;;;;;1.83;1.60;;;22.10;98.00;;;;;;4973464;28;20472;-63
2023/07/25 13:44:35;;;;;;;1.50;1.40;;;21.60;98.00;;;;;;4973160;28;20461;-63
2023/07/25 13:47:03;;;;;;;2.37;1.40;;;20.90;98.00;;;;;;4973246;28;20955;-64
2023/07/25 13:49:30;;;;;;;1.53;1.50;;;20.30;98.00;;;;;;4973334;28;20552;-65
2023/07/25 13:51:58;;;;;;;2.27;1.60;;;20.10;98.00;;;;;;4973504;28;20457;-65
2023/07/25 13:54:25;;;;;;;1.70;1.40;;;19.90;98.00;;;;;;4973229;28;20991;-65
2023/07/25 13:56:53;;;;;;;1.50;1.20;;;20.00;98.00;;;;;;4973063;28;20468;-66
2023/07/25 13:59:20;;;;;;;1.97;1.40;;;19.90;98.00;;;;;;4973042;28;20520;-63
2023/07/25 14:01:48;;;;;;;1.30;1.30;;;20.10;98.00;;;;;;4972953;28;20508;-61
2023/07/25 14:04:15;;;;;;;1.80;1.40;;;20.20;98.00;;;;;;4972747;28;20952;-63
2023/07/25 14:06:43;;;;;;;1.60;1.53;;;20.10;98.00;;;;;;4973089;28;20516;-63
2023/07/25 14:09:10;;;;;;;1.60;1.50;;;20.10;98.00;;;;;;4971649;28;20516;-63
2023/07/25 14:11:38;;;;;;;1.53;1.50;;;20.10;98.00;;;;;;4973295;28;20464;-63
2023/07/25 14:14:05;;;;;;;1.90;1.73;;;20.10;98.00;;;;;;4973324;28;20482;-63
2023/07/25 14:16:32;;;;;;;1.77;1.40;;;20.00;98.00;;;;;;4973308;28;20512;-63
2023/07/25 14:19:00;;;;;;;1.70;1.40;;;19.90;98.00;;;;;;4973333;28;20509;-63
2023/07/25 14:21:27;;;;;;;1.40;1.40;;;19.90;98.00;;;;;;4973395;28;20458;-64
2023/07/25 14:23:54;;;;;;;1.70;1.50;;;19.90;98.00;;;;;;4972060;28;20465;-63
2023/07/25 14:26:21;;;;;;;2.20;1.53;;;19.80;98.00;;;;;;4973499;28;20466;-63
2023/07/25 14:28:48;;;;;;;1.30;1.30;;;19.60;98.00;;;;;;4971657;28;20492;-62
2023/07/25 14:31:15;;;;;;;1.97;1.57;;;19.60;98.00;;;;;;4973210;28;20488;-63
2023/07/25 14:33:42;;;;;;;1.83;1.47;;;19.60;98.00;;;;;;4973190;28;20461;-63
2023/07/25 14:36:11;;;;;;;1.83;1.40;;;19.60;98.00;;;;;;4989210;28;20449;-63
2023/07/25 14:38:40;;;;;;;1.80;1.50;;;19.50;98.00;;;;;;4992589;28;20511;-63
2023/07/25 14:41:07;;;;;;;1.40;1.33;;;19.70;98.00;;;;;;4978249;28;20453;-63
2023/07/25 14:43:34;;;;;;;2.47;1.70;;;19.70;98.00;;;;;;4986362;28;20461;-63
2023/07/25 14:46:01;;;;;;;1.43;1.40;;;19.90;98.00;;;;;;4992450;28;20460;-63
2023/07/25 14:48:28;;;;;;;2.10;1.60;;;19.90;98.00;;;;;;4996308;28;20487;-63
2023/07/25 14:50:56;;;;;;;2.10;1.53;;;19.70;98.00;;;;;;4996534;28;20461;-63
2023/07/25 14:53:25;;;;;;;1.63;1.40;;;19.90;98.00;;;;;;4996452;28;20490;-63
2023/07/25 14:55:52;;;;;;;1.43;1.33;;;20.10;98.00;;;;;;4996591;28;20822;-63
2023/07/25 14:58:19;;;;;;;2.00;1.67;;;20.30;98.00;;;;;;4993956;28;20468;-63
2023/07/25 15:00:47;;;;;;;1.50;1.50;;;20.30;98.00;;;;;;4976771;28;20459;-63
2023/07/25 15:03:14;;;;;;;3.47;1.80;;;20.50;98.00;;;;;;4975507;28;20457;-62
2023/07/25 15:05:41;;;;;;;1.80;1.50;;;21.10;98.00;;;;;;4976707;28;20510;-63
2023/07/25 15:08:08;;;;;;;1.93;1.73;;;21.80;98.00;;;;;;4976466;28;20489;-63
2023/07/25 15:10:37;;;;;;;2.00;1.60;;;22.30;98.00;;;;;;4976112;28;20512;-63
2023/07/25 15:13:04;;;;;;;1.80;1.40;;;22.40;98.00;;;;;;4976454;28;20802;-63
2023/07/25 15:15:31;;;;;;;1.70;1.50;;;22.20;98.00;;;;;;4976381;28;20456;-63
2023/07/25 15:18:01;;;;;;;2.27;1.47;;;22.00;98.00;;;;;;4976491;28;20941;-63
2023/07/25 15:20:28;;;;;;;1.50;1.50;;;21.70;98.00;;;;;;4976505;28;20505;-64
2023/07/25 15:22:55;;;;;;;1.50;1.50;;;21.50;98.00;;;;;;4976423;28;20465;-63
2023/07/25 15:25:22;;;;;;;1.40;1.30;;;21.10;98.00;;;;;;4958904;28;20458;-63
2023/07/25 15:27:51;;;;;;;1.73;1.40;;;21.10;98.00;;;;;;4976302;28;20509;-63
2023/07/25 15:30:18;;;;;;;2.13;1.30;;;21.50;98.00;;;;;;4976412;28;20457;-63
2023/07/25 15:32:45;;;;;;;1.50;1.33;;;21.70;98.00;;;;;;4981237;28;20452;-63
2023/07/25 15:35:12;;;;;;;1.73;1.50;;;22.00;98.00;;;;;;4995484;28;20465;-63
2023/07/25 15:37:39;;;;;;;2.07;1.57;;;22.50;98.00;;;;;;4995758;28;20453;-64
2023/07/25 15:40:09;;;;;;;1.40;1.30;;;22.40;98.00;;;;;;4995752;28;20515;-64
2023/07/25 15:42:37;;;;;;;1.50;1.30;;;22.10;98.00;;;;;;4978343;28;20489;-64
2023/07/25 15:45:06;;;;;;;1.40;1.40;;;21.60;98.00;;;;;;4995586;28;20475;-63